Time;durP1;ratioP1;P1;durP2;ratioP2;P2;SDS_P1;SDS_P2;PMS_P1;PMS_P2;Temp;Humidity;BMP_temperature;BMP_pressure;BME280_temperature;BME280_humidity;BME280_pressure;Samples;Min_cycle;Max_cycle;Signal;HPM_P1;HPM_P2
2023/10/12 00:02:00;;;;;;;10.65;1.90;;;12.00;99.90;;;;;;4796157;29;20072;-59
2023/10/12 00:04:37;;;;;;;13.75;1.90;;;12.50;99.90;;;;;;4795213;29;20100;-59
2023/10/12 00:07:16;;;;;;;11.63;2.00;;;12.40;99.90;;;;;;4795331;29;20059;-59
2023/10/12 00:09:48;;;;;;;13.68;2.65;;;12.30;99.90;;;;;;4795272;29;20062;-59
2023/10/12 00:12:23;;;;;;;11.57;1.83;;;11.90;99.90;;;;;;4794884;29;20466;-59
2023/10/12 00:14:50;;;;;;;11.90;2.10;;;11.90;99.90;;;;;;4795997;29;20059;-59
2023/10/12 00:17:19;;;;;;;11.38;2.42;;;12.40;99.90;;;;;;4794925;29;20047;-59
2023/10/12 00:19:44;;;;;;;13.52;2.10;;;12.30;99.90;;;;;;4795240;29;20043;-59
2023/10/12 00:22:11;;;;;;;13.35;2.35;;;12.20;99.90;;;;;;4794975;29;20062;-59
2023/10/12 00:24:40;;;;;;;13.00;1.98;;;12.30;99.90;;;;;;4794319;29;20624;-59
2023/10/12 00:27:09;;;;;;;13.60;2.45;;;12.10;99.90;;;;;;4795462;29;20055;-58
2023/10/12 00:29:39;;;;;;;10.27;2.17;;;12.00;99.90;;;;;;4794214;29;20051;-59
2023/10/12 00:32:06;;;;;;;14.55;2.13;;;12.10;99.90;;;;;;4795530;29;20082;-59
2023/10/12 00:34:45;;;;;;;9.15;1.95;;;12.00;99.90;;;;;;4794641;29;20051;-58
2023/10/12 00:37:11;;;;;;;9.38;1.80;;;12.20;99.90;;;;;;4793495;30;20135;-59
2023/10/12 00:39:45;;;;;;;16.55;3.17;;;12.00;99.90;;;;;;4795104;29;20046;-59
2023/10/12 00:42:17;;;;;;;11.85;1.90;;;12.10;99.90;;;;;;4794311;29;20099;-59
2023/10/12 00:44:43;;;;;;;12.13;1.98;;;12.10;99.90;;;;;;4795666;29;20054;-59
2023/10/12 00:47:19;;;;;;;10.95;2.35;;;12.00;99.90;;;;;;4794437;29;20412;-58
2023/10/12 00:49:51;;;;;;;13.65;2.05;;;12.00;99.90;;;;;;4795058;29;20467;-59
2023/10/12 00:52:35;;;;;;;11.75;1.80;;;12.00;99.90;;;;;;4794797;29;20046;-59
2023/10/12 00:55:21;;;;;;;10.30;1.60;;;12.10;99.90;;;;;;4794031;29;20055;-59
2023/10/12 00:57:46;;;;;;;9.73;1.55;;;11.80;99.90;;;;;;4795176;29;20093;-59
2023/10/12 01:00:15;;;;;;;10.77;1.90;;;11.80;99.90;;;;;;4794599;29;20051;-58
2023/10/12 01:02:42;;;;;;;11.50;2.13;;;11.70;99.90;;;;;;4794579;29;20062;-59
2023/10/12 01:05:09;;;;;;;15.10;1.90;;;11.80;99.90;;;;;;4794822;29;20047;-59
2023/10/12 01:07:36;;;;;;;12.43;1.83;;;11.60;99.90;;;;;;4794007;29;20126;-58
2023/10/12 01:10:10;;;;;;;12.30;1.48;;;11.80;99.90;;;;;;4798378;29;20055;-59
2023/10/12 01:12:36;;;;;;;12.95;1.55;;;11.70;99.90;;;;;;4796583;30;20082;-59
2023/10/12 01:15:11;;;;;;;10.35;2.03;;;11.60;99.90;;;;;;4798758;29;20063;-59
2023/10/12 01:17:37;;;;;;;9.25;1.67;;;11.40;99.90;;;;;;4796780;29;20055;-59
2023/10/12 01:20:26;;;;;;;8.73;1.30;;;11.40;99.90;;;;;;4797917;29;20055;-58
2023/10/12 01:22:53;;;;;;;9.02;1.58;;;11.30;99.90;;;;;;4797080;29;20059;-59
2023/10/12 01:25:52;;;;;;;12.88;1.40;;;11.30;99.90;;;;;;4796745;29;20313;-59
2023/10/12 01:28:12;;;;;;;8.93;1.63;;;11.20;99.90;;;;;;4797529;30;20051;-59
2023/10/12 01:30:39;;;;;;;11.93;1.95;;;11.30;99.90;;;;;;4798220;29;20086;-58
2023/10/12 01:33:06;;;;;;;10.65;1.73;;;11.20;99.90;;;;;;4797089;29;20074;-59
2023/10/12 01:35:38;;;;;;;12.00;2.20;;;11.20;99.90;;;;;;4798264;29;20051;-59
2023/10/12 01:38:05;;;;;;;9.98;1.50;;;11.30;99.90;;;;;;4797094;29;20082;-57
2023/10/12 01:43:17;;;;;;;9.88;1.65;;;11.40;99.90;;;;;;4797563;29;20051;-58
2023/10/12 01:45:44;;;;;;;8.20;1.60;;;11.40;99.90;;;;;;4797186;29;20047;-58
2023/10/12 01:48:22;;;;;;;8.57;1.60;;;11.60;99.90;;;;;;4797624;29;20056;-59
2023/10/12 01:50:49;;;;;;;11.50;1.83;;;11.50;99.90;;;;;;4797267;29;20061;-58
2023/10/12 01:53:29;;;;;;;9.80;1.50;;;11.50;99.90;;;;;;4798173;29;20087;-58
2023/10/12 01:55:55;;;;;;;5.53;1.15;;;11.50;99.90;;;;;;4813131;29;20054;-57
2023/10/12 01:58:27;;;;;;;9.93;1.52;;;11.80;99.90;;;;;;4815578;29;20066;-58
2023/10/12 02:01:04;;;;;;;9.60;1.45;;;11.80;99.90;;;;;;4815521;29;20130;-57
2023/10/12 02:05:59;;;;;;;12.27;1.67;;;11.90;99.90;;;;;;4816285;29;20055;-58
2023/10/12 02:08:59;;;;;;;6.40;1.42;;;11.70;99.90;;;;;;4814356;29;20062;-58
2023/10/12 02:13:47;;;;;;;9.48;1.55;;;11.70;99.90;;;;;;4815284;29;20118;-58
2023/10/12 02:16:22;;;;;;;9.35;1.65;;;11.60;99.90;;;;;;4814914;29;20054;-58
2023/10/12 02:18:48;;;;;;;8.68;1.20;;;11.80;99.90;;;;;;4815498;29;20513;-58
2023/10/12 02:21:20;;;;;;;11.75;1.77;;;11.90;99.90;;;;;;4814361;29;20038;-58
2023/10/12 02:28:58;;;;;;;12.40;2.05;;;11.70;99.90;;;;;;4814384;29;20055;-58
2023/10/12 02:31:28;;;;;;;9.60;1.67;;;11.80;99.90;;;;;;4814044;29;20057;-58
2023/10/12 02:33:55;;;;;;;8.10;1.63;;;11.80;99.90;;;;;;4806220;29;20055;-58
2023/10/12 02:36:21;;;;;;;11.10;1.50;;;11.70;99.90;;;;;;4796395;29;20613;-58
2023/10/12 02:38:47;;;;;;;10.70;1.92;;;11.90;99.90;;;;;;4796615;29;20105;-58
2023/10/12 02:41:13;;;;;;;10.02;1.83;;;11.80;99.90;;;;;;4795483;30;20051;-58
2023/10/12 02:43:50;;;;;;;8.38;1.65;;;11.80;99.90;;;;;;4795482;30;20398;-58
2023/10/12 02:46:23;;;;;;;11.35;1.95;;;11.60;99.90;;;;;;4794991;30;20087;-58
2023/10/12 02:48:51;;;;;;;10.70;1.77;;;11.50;99.90;;;;;;4797160;30;20126;-58
2023/10/12 02:51:18;;;;;;;10.10;1.48;;;11.70;99.90;;;;;;4796260;29;20150;-58
2023/10/12 02:53:47;;;;;;;11.57;2.45;;;11.60;99.90;;;;;;4797050;29;20085;-58
2023/10/12 02:56:14;;;;;;;8.13;1.58;;;11.50;99.90;;;;;;4796565;29;20066;-58
2023/10/12 02:58:44;;;;;;;13.13;2.33;;;11.50;99.90;;;;;;4795901;29;20415;-57
2023/10/12 03:01:14;;;;;;;9.55;1.90;;;11.70;99.90;;;;;;4796592;29;20051;-58
2023/10/12 03:03:47;;;;;;;13.10;2.10;;;11.70;99.90;;;;;;4795824;29;20047;-58
2023/10/12 03:06:31;;;;;;;10.00;1.80;;;11.70;99.90;;;;;;4809671;29;20093;-58
2023/10/12 03:09:13;;;;;;;7.75;1.60;;;11.50;99.90;;;;;;4814204;29;20055;-58
2023/10/12 03:11:42;;;;;;;9.15;1.55;;;11.70;99.90;;;;;;4813999;29;20059;-58
2023/10/12 03:14:15;;;;;;;13.10;1.58;;;11.70;99.90;;;;;;4814463;29;20617;-58
2023/10/12 03:16:42;;;;;;;7.93;1.73;;;11.90;99.90;;;;;;4813706;29;20122;-58
2023/10/12 03:19:18;;;;;;;9.52;1.73;;;11.60;99.90;;;;;;4814781;29;20051;-58
2023/10/12 03:21:48;;;;;;;11.20;1.58;;;11.80;99.90;;;;;;4814166;29;20051;-57
2023/10/12 03:24:15;;;;;;;7.90;1.40;;;11.50;99.90;;;;;;4813720;29;20059;-58
2023/10/12 03:26:47;;;;;;;13.15;2.63;;;11.50;99.90;;;;;;4814107;29;20055;-59
2023/10/12 03:29:18;;;;;;;;;;;11.40;99.90;;;;;;4813702;29;20054;-58
2023/10/12 03:34:16;;;;;;;10.60;1.70;;;11.30;99.90;;;;;;4802990;29;20130;-58
2023/10/12 03:36:47;;;;;;;9.20;1.70;;;11.40;99.90;;;;;;4794754;29;20058;-58
2023/10/12 03:44:18;;;;;;;9.13;2.00;;;11.40;99.90;;;;;;4795851;29;20048;-58
2023/10/12 03:46:47;;;;;;;7.47;1.52;;;11.60;99.90;;;;;;4795300;29;20055;-58
2023/10/12 03:49:32;;;;;;;7.47;1.90;;;11.50;99.90;;;;;;4796047;29;20055;-58
2023/10/12 03:52:12;;;;;;;9.13;1.83;;;11.60;99.90;;;;;;4794980;29;20448;-58
2023/10/12 03:54:39;;;;;;;6.95;1.35;;;11.50;99.90;;;;;;4792995;29;20051;-58
2023/10/12 03:57:19;;;;;;;9.18;1.50;;;11.70;99.90;;;;;;4794530;30;20173;-58
2023/10/12 03:59:59;;;;;;;12.30;2.10;;;11.60;99.90;;;;;;4795049;29;20047;-58
2023/10/12 04:02:25;;;;;;;10.30;1.60;;;11.60;99.90;;;;;;4795590;29;20083;-58
2023/10/12 04:04:59;;;;;;;5.45;1.40;;;11.70;99.90;;;;;;4795128;29;20135;-58
2023/10/12 04:07:39;;;;;;;7.63;1.80;;;11.80;99.90;;;;;;4794781;29;20047;-58
2023/10/12 04:10:23;;;;;;;11.88;1.58;;;11.70;99.90;;;;;;4794038;29;20388;-58
2023/10/12 04:12:53;;;;;;;6.25;1.20;;;11.60;99.90;;;;;;4794751;29;20051;-58
2023/10/12 04:15:27;;;;;;;11.85;1.40;;;11.70;99.90;;;;;;4795237;29;20058;-58
2023/10/12 04:17:59;;;;;;;11.43;1.50;;;11.70;99.90;;;;;;4795146;29;20051;-58
2023/10/12 04:20:24;;;;;;;8.43;1.63;;;11.70;99.90;;;;;;4794520;29;20043;-58
2023/10/12 04:28:16;;;;;;;11.95;1.75;;;11.60;99.90;;;;;;4795190;29;20130;-57
2023/10/12 04:33:24;;;;;;;11.57;1.50;;;11.60;99.90;;;;;;4794425;29;20127;-57
2023/10/12 04:43:36;;;;;;;6.72;1.13;;;11.40;99.90;;;;;;4794141;29;20055;-58
2023/10/12 04:48:41;;;;;;;9.95;1.77;;;11.40;99.90;;;;;;4795230;29;20392;-59
2023/10/12 04:51:19;;;;;;;11.55;2.67;;;11.20;99.90;;;;;;4792590;30;20064;-58
2023/10/12 04:53:57;;;;;;;8.63;1.70;;;11.20;99.90;;;;;;4795172;29;20051;-58
2023/10/12 04:56:26;;;;;;;7.57;1.42;;;11.20;99.90;;;;;;4794294;29;20069;-58
2023/10/12 04:58:59;;;;;;;7.38;1.55;;;11.20;99.90;;;;;;4794321;29;20055;-58
2023/10/12 05:01:30;;;;;;;11.10;1.50;;;11.30;99.90;;;;;;4794983;29;20122;-57
2023/10/12 05:04:09;;;;;;;9.88;1.70;;;11.20;99.90;;;;;;4794150;29;20059;-62
2023/10/12 05:06:56;;;;;;;9.07;2.15;;;11.30;99.90;;;;;;4794897;29;20055;-57
2023/10/12 05:09:22;;;;;;;10.05;1.90;;;11.30;99.90;;;;;;4794316;29;20142;-58
2023/10/12 05:11:47;;;;;;;12.55;1.75;;;11.30;99.90;;;;;;4794067;29;20163;-57
2023/10/12 05:14:16;;;;;;;8.50;1.40;;;11.30;99.90;;;;;;4795015;29;20048;-63
2023/10/12 05:16:45;;;;;;;9.93;1.48;;;11.30;99.90;;;;;;4794114;29;20137;-58
2023/10/12 05:19:11;;;;;;;13.05;1.55;;;11.20;99.90;;;;;;4794928;29;20055;-57
2023/10/12 05:21:38;;;;;;;6.38;1.50;;;11.20;99.90;;;;;;4794129;29;20581;-57
2023/10/12 05:24:05;;;;;;;12.15;1.88;;;11.20;99.90;;;;;;4794337;29;20055;-58
2023/10/12 05:26:30;;;;;;;8.25;1.88;;;11.30;99.90;;;;;;4793541;29;20529;-58
2023/10/12 05:31:48;;;;;;;6.70;1.60;;;11.20;99.90;;;;;;4801057;29;20058;-57
2023/10/12 05:34:32;;;;;;;8.60;2.63;;;11.10;99.90;;;;;;4801386;29;20122;-57
2023/10/12 05:37:16;;;;;;;12.00;1.55;;;11.20;99.90;;;;;;4789563;29;20047;-57
2023/10/12 05:39:51;;;;;;;14.50;1.92;;;11.10;99.90;;;;;;4789458;29;20465;-58
2023/10/12 05:42:19;;;;;;;8.38;2.03;;;11.00;99.90;;;;;;4790048;29;20051;-57
2023/10/12 05:44:49;;;;;;;10.38;1.90;;;11.10;99.90;;;;;;4789831;30;20129;-58
2023/10/12 05:47:17;;;;;;;9.43;1.77;;;11.00;99.90;;;;;;4788369;29;20074;-57
2023/10/12 05:49:50;;;;;;;6.80;1.27;;;11.00;99.90;;;;;;4790376;30;20055;-57
2023/10/12 05:52:17;;;;;;;6.40;1.40;;;11.00;99.90;;;;;;4790455;30;20085;-58
2023/10/12 05:54:43;;;;;;;8.43;1.65;;;11.00;99.90;;;;;;4791285;29;20047;-58
2023/10/12 05:57:25;;;;;;;8.18;1.60;;;11.00;99.90;;;;;;4794470;30;20078;-58
2023/10/12 05:59:50;;;;;;;9.23;1.77;;;10.90;99.90;;;;;;4792916;29;20075;-58
2023/10/12 06:02:22;;;;;;;8.02;1.45;;;11.00;99.90;;;;;;4792999;30;20050;-57
2023/10/12 06:04:48;;;;;;;8.48;1.55;;;10.90;99.90;;;;;;4793400;29;20088;-57
2023/10/12 06:07:14;;;;;;;10.25;2.58;;;11.00;99.90;;;;;;4792866;29;20051;-57
2023/10/12 06:09:40;;;;;;;6.13;1.35;;;10.90;99.90;;;;;;4792693;29;20051;-57
2023/10/12 06:12:07;;;;;;;13.05;1.60;;;10.90;99.90;;;;;;4790381;29;20051;-57
2023/10/12 06:14:38;;;;;;;6.22;1.50;;;11.00;99.90;;;;;;4793527;29;20528;-58
2023/10/12 06:17:28;;;;;;;9.18;1.73;;;11.00;99.90;;;;;;4792580;29;20592;-57
2023/10/12 06:19:55;;;;;;;10.15;1.52;;;11.00;99.90;;;;;;4790744;29;20504;-57
2023/10/12 06:22:23;;;;;;;9.93;1.70;;;11.00;99.90;;;;;;4791982;29;20080;-58
2023/10/12 06:24:49;;;;;;;6.22;1.33;;;11.00;99.90;;;;;;4791422;29;20097;-57
2023/10/12 06:29:47;;;;;;;11.75;1.73;;;11.00;99.90;;;;;;4792897;29;20055;-57
2023/10/12 06:32:19;;;;;;;9.55;1.55;;;11.00;99.90;;;;;;4793622;29;20126;-57
2023/10/12 06:35:35;;;;;;;10.45;1.88;;;11.00;99.90;;;;;;4793381;29;20055;-58
2023/10/12 06:45:46;;;;;;;11.13;2.15;;;11.00;99.90;;;;;;4792678;29;20055;-57
2023/10/12 06:51:06;;;;;;;9.33;1.70;;;11.10;99.90;;;;;;4792474;29;20067;-57
2023/10/12 06:53:34;;;;;;;7.50;1.77;;;11.00;99.90;;;;;;4793609;29;20104;-57
2023/10/12 06:56:15;;;;;;;12.75;2.10;;;11.10;99.90;;;;;;4792618;29;20079;-57
2023/10/12 07:01:58;;;;;;;8.88;1.60;;;11.10;99.90;;;;;;4752681;30;20117;-58
2023/10/12 07:04:38;;;;;;;6.03;1.70;;;11.20;99.90;;;;;;4780505;30;20074;-57
2023/10/12 07:07:07;;;;;;;8.93;1.67;;;11.20;99.90;;;;;;4791747;29;20055;-57
2023/10/12 07:09:40;;;;;;;8.85;1.73;;;11.30;99.90;;;;;;4791304;30;20111;-57
2023/10/12 07:12:07;;;;;;;8.80;2.08;;;11.40;99.90;;;;;;4791539;29;20138;-57
2023/10/12 07:14:55;;;;;;;14.82;2.30;;;11.40;99.90;;;;;;4792958;29;20086;-57
2023/10/12 07:17:31;;;;;;;9.15;2.00;;;11.60;99.90;;;;;;4791738;30;20055;-57
2023/10/12 07:19:57;;;;;;;8.18;1.88;;;11.60;99.90;;;;;;4791778;29;20044;-57
2023/10/12 07:22:22;;;;;;;9.43;2.30;;;11.90;99.90;;;;;;4790638;30;20063;-58
2023/10/12 07:24:56;;;;;;;7.72;1.63;;;11.80;99.90;;;;;;4790901;29;20066;-57
2023/10/12 07:27:23;;;;;;;7.60;1.70;;;11.90;99.90;;;;;;4792340;29;20055;-57
2023/10/12 07:30:16;;;;;;;8.73;1.60;;;11.90;99.90;;;;;;4791331;29;20081;-58
2023/10/12 07:32:54;;;;;;;10.25;1.58;;;12.10;99.90;;;;;;4791681;29;20059;-57
2023/10/12 07:35:31;;;;;;;8.45;1.40;;;12.10;99.90;;;;;;4783865;30;20054;-58
2023/10/12 07:38:02;;;;;;;12.40;1.60;;;12.20;99.90;;;;;;4790396;29;20043;-57
2023/10/12 07:40:36;;;;;;;9.23;1.92;;;12.30;99.90;;;;;;4789881;30;20849;-57
2023/10/12 07:43:05;;;;;;;9.40;1.75;;;12.40;99.90;;;;;;4790420;30;20051;-57
2023/10/12 07:45:47;;;;;;;8.05;1.20;;;12.40;99.90;;;;;;4791117;29;20039;-57
2023/10/12 07:48:29;;;;;;;10.18;1.88;;;12.30;99.90;;;;;;4789724;30;20063;-57
2023/10/12 07:50:55;;;;;;;11.18;1.73;;;12.30;99.40;;;;;;4789960;30;20138;-57
2023/10/12 07:53:23;;;;;;;9.13;1.33;;;12.40;93.40;;;;;;4792305;29;20089;-58
2023/10/12 07:55:55;;;;;;;11.65;1.88;;;12.40;97.40;;;;;;4790997;29;20051;-57
2023/10/12 07:58:21;;;;;;;8.20;1.63;;;12.50;97.40;;;;;;4789432;30;20138;-58
2023/10/12 08:00:51;;;;;;;7.10;1.38;;;12.40;97.60;;;;;;4789822;30;20077;-57
2023/10/12 08:03:25;;;;;;;9.73;2.10;;;12.50;94.30;;;;;;4791345;30;20043;-57
2023/10/12 08:05:57;;;;;;;8.20;1.88;;;12.60;99.90;;;;;;4795477;29;20103;-57
2023/10/12 08:08:37;;;;;;;7.35;1.50;;;12.60;99.90;;;;;;4794457;30;20047;-56
2023/10/12 08:11:10;;;;;;;10.45;1.77;;;12.70;99.90;;;;;;4794988;29;20058;-57
2023/10/12 08:13:39;;;;;;;8.75;1.73;;;12.70;99.90;;;;;;4794854;29;20047;-57
2023/10/12 08:16:14;;;;;;;7.55;1.63;;;12.80;99.90;;;;;;4794393;29;20055;-58
2023/10/12 08:21:25;;;;;;;8.32;1.45;;;12.80;99.90;;;;;;4794014;29;20100;-58
2023/10/12 08:23:57;;;;;;;9.43;1.27;;;12.90;99.90;;;;;;4793702;30;20073;-57
2023/10/12 08:27:06;;;;;;;9.85;1.95;;;12.80;94.70;;;;;;4794800;29;20404;-58
2023/10/12 08:31:54;;;;;;;8.15;1.40;;;12.90;93.00;;;;;;4795214;29;20062;-57
2023/10/12 08:39:39;;;;;;;8.60;1.67;;;13.00;90.50;;;;;;4794404;29;20085;-56
2023/10/12 08:44:59;;;;;;;8.07;1.30;;;12.90;62.70;;;;;;4795266;29;20059;-57
2023/10/12 08:52:28;;;;;;;6.47;1.15;;;13.10;75.20;;;;;;4794637;29;20298;-55
2023/10/12 08:55:03;;;;;;;5.80;1.25;;;13.20;79.00;;;;;;4793845;29;20420;-57
2023/10/12 08:57:35;;;;;;;7.90;1.27;;;13.00;50.90;;;;;;4795155;29;20051;-57
2023/10/12 09:00:24;;;;;;;9.70;1.52;;;13.10;60.60;;;;;;4794142;29;20119;-57
2023/10/12 09:03:00;;;;;;;10.85;1.52;;;13.20;66.10;;;;;;4794095;29;20056;-58
2023/10/12 09:05:33;;;;;;;8.80;1.23;;;13.20;55.00;;;;;;4793244;29;20063;-57
2023/10/12 09:10:51;;;;;;;10.43;1.80;;;13.20;57.90;;;;;;4795160;29;20059;-58
2023/10/12 09:13:22;;;;;;;8.30;1.52;;;13.40;65.70;;;;;;4794417;29;20089;-57
2023/10/12 09:15:54;;;;;;;7.93;1.52;;;13.30;42.10;;;;;;4793948;29;20059;-57
2023/10/12 09:18:33;;;;;;;9.48;1.58;;;13.40;43.80;;;;;;4794642;29;20063;-57
2023/10/12 09:23:31;;;;;;;11.38;1.70;;;13.60;61.60;;;;;;4794616;29;20058;-58
2023/10/12 09:31:13;;;;;;;8.77;1.80;;;13.90;63.90;;;;;;4796893;29;20040;-58
2023/10/12 09:34:31;;;;;;;11.70;1.67;;;13.90;61.40;;;;;;4796088;29;20502;-57
2023/10/12 09:36:53;;;;;;;11.95;1.88;;;13.90;50.20;;;;;;4795063;29;20055;-57
2023/10/12 09:39:24;;;;;;;9.23;1.42;;;14.00;41.80;;;;;;4796804;29;20100;-57
2023/10/12 09:41:59;;;;;;;9.07;1.20;;;13.90;26.40;;;;;;4796589;29;20488;-57
2023/10/12 09:44:37;;;;;;;9.77;1.77;;;13.90;24.20;;;;;;4796994;29;20043;-58
2023/10/12 09:47:09;;;;;;;11.93;1.90;;;13.80;14.40;;;;;;4796551;29;20055;-58
2023/10/12 09:49:43;;;;;;;8.88;1.35;;;13.90;6.10;;;;;;4796419;29;20369;-57
2023/10/12 09:52:17;;;;;;;11.18;1.25;;;13.90;5.00;;;;;;4795807;29;20062;-57
2023/10/12 09:54:52;;;;;;;7.72;1.27;;;13.90;1.00;;;;;;4795493;29;20079;-58
2023/10/12 09:57:23;;;;;;;10.38;1.38;;;13.90;1.00;;;;;;4793689;30;20054;-58
2023/10/12 09:59:53;;;;;;;7.10;1.17;;;14.00;1.00;;;;;;4795182;30;20054;-57
2023/10/12 10:02:30;;;;;;;10.43;1.48;;;13.90;1.00;;;;;;4794753;30;20043;-57
2023/10/12 10:07:56;;;;;;;7.22;1.58;;;14.10;1.00;;;;;;4786092;29;20528;-57
2023/10/12 10:10:31;;;;;;;10.23;1.33;;;14.10;1.00;;;;;;4796254;29;20541;-57
2023/10/12 10:13:03;;;;;;;10.52;3.20;;;14.10;1.00;;;;;;4794395;30;20043;-57
2023/10/12 10:15:36;;;;;;;;;;;14.20;1.00;;;;;;4794182;30;20111;-58
2023/10/12 10:18:04;;;;;;;8.32;1.10;;;14.20;1.00;;;;;;4795679;29;20468;-56
2023/10/12 10:20:46;;;;;;;11.73;1.73;;;14.20;1.00;;;;;;4795639;30;20059;-57
2023/10/12 10:23:14;;;;;;;8.77;1.52;;;14.40;1.00;;;;;;4796485;29;20088;-57
2023/10/12 10:25:50;;;;;;;7.82;2.08;;;14.40;1.00;;;;;;4795515;30;20063;-58
2023/10/12 10:28:36;;;;;;;9.45;1.10;;;14.50;1.00;;;;;;4795942;29;20056;-57
2023/10/12 10:31:04;;;;;;;11.07;1.63;;;14.60;1.00;;;;;;4796097;29;20059;-58
2023/10/12 10:33:36;;;;;;;9.27;1.48;;;14.70;1.00;;;;;;4795725;30;20062;-58
2023/10/12 10:36:10;;;;;;;9.38;1.33;;;14.90;1.00;;;;;;4796263;29;20139;-57
2023/10/12 10:38:55;;;;;;;11.40;1.45;;;14.90;1.00;;;;;;4794466;30;20508;-57
2023/10/12 10:41:23;;;;;;;10.68;1.50;;;14.70;1.00;;;;;;4794006;29;20139;-58
2023/10/12 10:43:53;;;;;;;8.02;1.67;;;14.60;1.00;;;;;;4795736;29;20065;-57
2023/10/12 10:46:26;;;;;;;9.13;1.73;;;14.80;1.00;;;;;;4795448;30;20126;-57
2023/10/12 10:48:53;;;;;;;8.98;1.27;;;14.80;1.00;;;;;;4795579;30;20055;-57
2023/10/12 10:51:24;;;;;;;7.95;0.95;;;15.00;1.00;;;;;;4795649;29;20413;-57
2023/10/12 10:53:52;;;;;;;10.10;1.23;;;15.10;1.00;;;;;;4795296;29;20524;-56
2023/10/12 10:56:32;;;;;;;7.55;1.20;;;15.20;1.00;;;;;;4795375;29;20490;-57
2023/10/12 10:58:59;;;;;;;7.78;1.70;;;15.30;1.00;;;;;;4795466;29;20047;-57
2023/10/12 11:01:26;;;;;;;10.15;1.38;;;15.20;1.00;;;;;;4795717;30;20122;-58
2023/10/12 11:03:52;;;;;;;7.47;0.90;;;15.30;1.00;;;;;;4795080;30;20070;-57
2023/10/12 11:06:21;;;;;;;9.18;1.30;;;15.30;1.00;;;;;;4795590;29;20059;-58
2023/10/12 11:09:06;;;;;;;10.07;1.13;;;15.20;1.00;;;;;;4795434;30;20107;-56
2023/10/12 11:11:45;;;;;;;6.55;1.10;;;15.20;1.00;;;;;;4823948;29;20055;-57
2023/10/12 11:14:16;;;;;;;10.07;1.48;;;15.10;1.00;;;;;;4810704;29;20089;-58
2023/10/12 11:16:48;;;;;;;12.23;1.90;;;15.10;1.00;;;;;;4810779;29;20292;-57
2023/10/12 11:19:19;;;;;;;8.75;1.40;;;15.00;1.00;;;;;;4812743;29;20043;-57
2023/10/12 11:21:46;;;;;;;9.63;1.55;;;14.90;1.00;;;;;;4813065;29;20090;-58
2023/10/12 11:24:14;;;;;;;9.48;1.20;;;15.00;1.00;;;;;;4811598;29;20131;-57
2023/10/12 11:26:54;;;;;;;9.00;1.85;;;15.00;1.00;;;;;;4812558;29;20082;-58
2023/10/12 11:29:22;;;;;;;7.70;1.15;;;14.90;1.00;;;;;;4812474;29;20093;-57
2023/10/12 11:32:24;;;;;;;9.73;1.52;;;15.00;1.00;;;;;;4813423;29;20043;-58
2023/10/12 11:34:52;;;;;;;12.85;1.50;;;15.00;1.00;;;;;;4779767;30;20051;-57
2023/10/12 11:37:18;;;;;;;8.95;1.48;;;15.10;1.00;;;;;;4793613;29;20116;-57
2023/10/12 11:39:45;;;;;;;8.40;1.40;;;15.10;1.00;;;;;;4794740;29;20462;-57
2023/10/12 11:42:12;;;;;;;11.00;1.77;;;15.10;1.00;;;;;;4794214;29;20043;-58
2023/10/12 11:44:44;;;;;;;7.35;1.30;;;15.20;1.00;;;;;;4793445;30;20055;-57
2023/10/12 11:47:50;;;;;;;7.82;1.45;;;15.20;1.00;;;;;;4794370;29;20054;-57
2023/10/12 11:50:30;;;;;;;8.65;1.40;;;15.30;1.00;;;;;;4794399;29;20063;-57
2023/10/12 11:52:55;;;;;;;12.27;2.20;;;15.40;1.00;;;;;;4793630;29;20058;-57
2023/10/12 11:55:27;;;;;;;8.63;1.40;;;15.50;1.00;;;;;;4793087;29;20107;-57
2023/10/12 11:57:54;;;;;;;6.65;1.10;;;15.50;1.00;;;;;;4793926;29;20051;-58
2023/10/12 12:00:29;;;;;;;8.63;1.30;;;15.50;1.00;;;;;;4794153;29;20051;-58
2023/10/12 12:02:57;;;;;;;12.73;1.25;;;15.50;1.00;;;;;;4794161;29;20123;-57
2023/10/12 12:05:33;;;;;;;11.32;1.20;;;15.50;1.00;;;;;;4792252;29;20488;-58
2023/10/12 12:08:06;;;;;;;9.77;1.70;;;15.50;1.00;;;;;;4793643;29;20052;-57
2023/10/12 12:13:20;;;;;;;8.95;1.33;;;15.40;1.00;;;;;;4794383;29;20136;-58
2023/10/12 12:15:50;;;;;;;9.05;1.85;;;15.40;1.00;;;;;;4794075;29;20057;-58
2023/10/12 12:18:19;;;;;;;9.18;1.15;;;15.40;1.00;;;;;;4794272;29;20597;-57
2023/10/12 12:20:56;;;;;;;12.43;1.40;;;15.40;1.00;;;;;;4791381;30;20076;-57
2023/10/12 12:23:33;;;;;;;8.65;1.55;;;15.50;1.00;;;;;;4792849;29;20055;-58
2023/10/12 12:26:18;;;;;;;7.80;1.38;;;15.50;1.00;;;;;;4793922;29;20134;-57
2023/10/12 12:28:44;;;;;;;7.65;1.20;;;15.50;1.00;;;;;;4793549;29;20070;-57
2023/10/12 12:31:13;;;;;;;9.25;1.13;;;15.60;1.00;;;;;;4792718;29;20106;-58
2023/10/12 12:33:44;;;;;;;9.88;1.30;;;15.50;1.00;;;;;;4793333;29;20047;-58
2023/10/12 12:36:20;;;;;;;8.40;1.25;;;15.50;1.00;;;;;;4794343;29;20115;-57
2023/10/12 12:38:51;;;;;;;11.75;2.08;;;15.50;1.00;;;;;;4792536;30;20111;-57
2023/10/12 12:41:23;;;;;;;8.13;1.60;;;15.50;1.00;;;;;;4793660;29;20054;-57
2023/10/12 12:43:50;;;;;;;12.10;1.60;;;15.50;1.00;;;;;;4793872;29;20103;-59
2023/10/12 12:46:17;;;;;;;8.40;1.20;;;15.50;1.00;;;;;;4792052;30;20070;-58
2023/10/12 12:48:45;;;;;;;7.22;1.33;;;15.60;1.00;;;;;;4794187;29;20047;-58
2023/10/12 12:51:15;;;;;;;12.85;2.22;;;15.50;1.00;;;;;;4793565;29;20051;-57
2023/10/12 12:53:42;;;;;;;8.75;2.60;;;15.50;1.00;;;;;;4793543;29;20047;-58
2023/10/12 12:56:10;;;;;;;10.95;1.40;;;15.50;1.00;;;;;;4792131;29;20047;-58
2023/10/12 12:58:37;;;;;;;8.73;1.45;;;15.50;1.00;;;;;;4793081;29;20051;-57
2023/10/12 13:01:03;;;;;;;9.80;1.60;;;15.50;1.00;;;;;;4792986;29;20063;-57
2023/10/12 13:03:29;;;;;;;8.88;1.85;;;15.50;1.00;;;;;;4792841;29;20200;-57
2023/10/12 13:05:55;;;;;;;9.38;1.05;;;15.50;1.00;;;;;;4793426;29;20058;-58
2023/10/12 13:08:22;;;;;;;10.32;1.60;;;15.50;1.00;;;;;;4793157;29;20055;-57
2023/10/12 13:10:48;;;;;;;9.60;1.30;;;15.50;1.00;;;;;;4793530;29;20051;-57
2023/10/12 13:13:14;;;;;;;9.43;1.42;;;15.50;1.00;;;;;;4793573;29;20543;-58
2023/10/12 13:15:42;;;;;;;8.50;1.20;;;15.50;1.00;;;;;;4793183;29;20611;-57
2023/10/12 13:18:14;;;;;;;5.28;1.25;;;15.50;1.00;;;;;;4793214;29;20047;-58
2023/10/12 13:20:46;;;;;;;;;;;15.50;1.00;;;;;;4793417;29;20186;-58
2023/10/12 13:23:21;;;;;;;6.90;1.00;;;15.50;1.00;;;;;;4791882;30;20333;-58
2023/10/12 13:25:47;;;;;;;9.48;1.50;;;15.40;1.00;;;;;;4790448;29;20063;-57
2023/10/12 13:28:13;;;;;;;11.73;1.40;;;15.50;1.00;;;;;;4792797;29;20087;-57
2023/10/12 13:30:41;;;;;;;7.75;1.40;;;15.40;1.00;;;;;;4793533;29;20039;-58
2023/10/12 13:33:11;;;;;;;7.35;1.60;;;15.40;1.00;;;;;;4791713;29;20058;-57
2023/10/12 13:38:09;;;;;;;6.70;1.75;;;15.40;1.00;;;;;;4792951;29;20120;-57
2023/10/12 13:40:44;;;;;;;7.95;1.30;;;15.40;1.00;;;;;;4793506;29;20051;-57
2023/10/12 13:43:21;;;;;;;9.27;1.80;;;15.40;1.00;;;;;;4792194;30;20051;-58
2023/10/12 13:45:57;;;;;;;8.57;1.27;;;15.40;1.00;;;;;;4793144;29;20062;-57
2023/10/12 13:48:27;;;;;;;10.90;1.40;;;15.30;1.00;;;;;;4793198;29;20047;-57
2023/10/12 13:51:01;;;;;;;5.20;0.82;;;15.40;1.00;;;;;;4793025;29;20044;-57
2023/10/12 13:53:32;;;;;;;6.40;1.23;;;15.30;1.00;;;;;;4793348;29;20055;-58
2023/10/12 13:56:01;;;;;;;11.20;1.55;;;15.40;1.00;;;;;;4793066;29;20497;-58
2023/10/12 13:58:26;;;;;;;10.32;1.58;;;15.30;1.00;;;;;;4792954;29;20051;-58
2023/10/12 14:00:53;;;;;;;7.28;1.65;;;15.30;1.00;;;;;;4792947;29;20113;-58
2023/10/12 14:03:27;;;;;;;7.65;1.40;;;15.30;1.00;;;;;;4792355;29;20212;-57
2023/10/12 14:05:57;;;;;;;7.50;1.23;;;15.20;1.00;;;;;;4793464;29;20044;-58
2023/10/12 14:08:24;;;;;;;11.07;1.35;;;15.20;1.00;;;;;;4792930;29;20063;-57
2023/10/12 14:10:51;;;;;;;7.07;1.27;;;15.20;1.00;;;;;;4793085;29;20051;-58
2023/10/12 14:13:17;;;;;;;10.65;1.30;;;15.20;1.00;;;;;;4793097;29;20054;-58
2023/10/12 14:15:43;;;;;;;9.35;1.67;;;15.20;1.00;;;;;;4794113;29;20066;-57
2023/10/12 14:18:11;;;;;;;12.43;2.55;;;15.20;1.00;;;;;;4795881;29;20111;-57
2023/10/12 14:20:39;;;;;;;7.60;1.75;;;15.20;1.00;;;;;;4796078;29;20055;-58
2023/10/12 14:23:07;;;;;;;12.52;2.03;;;15.10;1.00;;;;;;4796304;29;20412;-57
2023/10/12 14:25:38;;;;;;;7.90;1.63;;;15.10;1.00;;;;;;4795673;29;20055;-56
2023/10/12 14:28:05;;;;;;;9.73;1.67;;;15.10;1.00;;;;;;4794333;29;20452;-57
2023/10/12 14:30:36;;;;;;;10.07;2.25;;;15.10;1.00;;;;;;4795872;29;20059;-57
2023/10/12 14:33:03;;;;;;;8.15;2.13;;;15.00;1.00;;;;;;4795627;29;20473;-57
2023/10/12 14:35:39;;;;;;;11.65;2.67;;;15.10;1.00;;;;;;4796114;29;20078;-57
2023/10/12 14:38:12;;;;;;;7.90;2.17;;;15.00;1.00;;;;;;4795607;29;20043;-56
2023/10/12 14:40:40;;;;;;;11.43;1.83;;;15.10;1.00;;;;;;4795649;29;20124;-57
2023/10/12 14:43:10;;;;;;;12.85;2.35;;;15.00;1.00;;;;;;4796081;29;20047;-57
2023/10/12 14:45:48;;;;;;;11.63;2.10;;;15.00;1.00;;;;;;4795813;29;20051;-59
2023/10/12 14:48:16;;;;;;;16.55;2.03;;;14.90;1.00;;;;;;4794253;30;20063;-57